createdAt,value
2018-04-14T00:00:50.298Z,96.71
2018-04-14T00:03:17.873Z,96.91
2018-04-14T00:05:45.641Z,96.47
2018-04-14T00:08:13.354Z,96.42
2018-04-14T00:10:41.125Z,96.30
2018-04-14T00:13:08.675Z,96.13
2018-04-14T00:15:36.274Z,96.12
2018-04-14T00:18:03.900Z,96.46
2018-04-14T00:20:31.723Z,96.58
2018-04-14T00:22:59.430Z,96.92
2018-04-14T00:25:27.490Z,96.33
2018-04-14T00:27:55.432Z,96.81
2018-04-14T00:30:23.199Z,97.10
2018-04-14T00:32:50.730Z,97.40
2018-04-14T00:35:18.727Z,97.36
2018-04-14T00:37:46.522Z,97.71
2018-04-14T00:40:14.235Z,97.91
2018-04-14T00:42:41.918Z,97.46
2018-04-14T00:45:09.563Z,97.17
2018-04-14T00:47:37.140Z,97.66
2018-04-14T00:50:04.668Z,97.92
2018-04-14T00:52:32.231Z,98.38
2018-04-14T00:55:00.080Z,98.68
2018-04-14T00:57:27.687Z,98.77
2018-04-14T00:59:55.414Z,98.69
2018-04-14T01:02:23.487Z,98.06
2018-04-14T01:04:51.597Z,98.50
2018-04-14T01:07:19.414Z,98.65
2018-04-14T01:09:47.149Z,98.68
2018-04-14T01:12:14.905Z,98.73
2018-04-14T01:14:42.708Z,98.55
2018-04-14T01:17:10.468Z,98.52
2018-04-14T01:19:38.010Z,98.54
2018-04-14T01:22:05.555Z,98.28
2018-04-14T01:24:33.186Z,98.11
2018-04-14T01:27:01.004Z,97.80
2018-04-14T01:29:28.565Z,97.19
2018-04-14T01:31:56.265Z,96.89
2018-04-14T01:34:23.936Z,96.77
2018-04-14T01:36:51.976Z,97.10
2018-04-14T01:39:19.727Z,97.94
2018-04-14T01:41:47.379Z,98.46
2018-04-14T01:44:15.175Z,98.13
2018-04-14T01:46:42.714Z,97.89
2018-04-14T01:49:10.701Z,98.16
2018-04-14T01:51:38.245Z,98.23
2018-04-14T01:54:05.971Z,97.93
2018-04-14T01:56:34.051Z,98.03
2018-04-14T01:59:01.899Z,98.29
2018-04-14T02:01:29.613Z,98.18
2018-04-14T02:03:57.520Z,98.52
2018-04-14T02:06:25.391Z,98.40
2018-04-14T02:08:53.288Z,98.01
2018-04-14T02:11:21.094Z,96.83
2018-04-14T02:13:48.788Z,96.04
2018-04-14T02:16:16.584Z,96.35
2018-04-14T02:18:44.210Z,97.34
2018-04-14T02:21:11.810Z,97.94
2018-04-14T02:23:39.379Z,98.33
2018-04-14T02:26:06.900Z,98.42
2018-04-14T02:28:34.629Z,98.64
2018-04-14T02:31:02.159Z,99.06
2018-04-14T02:33:30.324Z,99.30
2018-04-14T02:35:57.913Z,99.28
2018-04-14T02:38:25.615Z,99.48
2018-04-14T02:40:53.140Z,99.49
2018-04-14T02:43:20.855Z,99.30
2018-04-14T02:45:48.490Z,99.18
2018-04-14T02:48:16.164Z,98.98
2018-04-14T02:50:43.814Z,98.92
2018-04-14T02:53:11.519Z,98.98
2018-04-14T02:55:39.066Z,97.96
2018-04-14T02:58:06.661Z,98.27
2018-04-14T03:00:34.210Z,98.19
2018-04-14T03:03:01.978Z,98.00
2018-04-14T03:05:29.891Z,98.22
2018-04-14T03:07:57.634Z,98.62
2018-04-14T03:10:25.303Z,98.95
2018-04-14T03:12:52.825Z,98.79
2018-04-14T03:15:20.390Z,98.20
2018-04-14T03:17:48.084Z,97.44
2018-04-14T03:20:15.784Z,96.56
2018-04-14T03:22:43.329Z,96.12
2018-04-14T03:25:10.836Z,95.82
2018-04-14T03:27:38.495Z,95.72
2018-04-14T03:30:06.024Z,95.82
2018-04-14T03:32:34.068Z,95.44
2018-04-14T03:35:01.629Z,95.67
2018-04-14T03:37:29.414Z,96.43
2018-04-14T03:39:56.944Z,96.89
2018-04-14T03:42:24.575Z,97.21
2018-04-14T03:44:52.316Z,97.77
2018-04-14T03:47:20.144Z,97.72
2018-04-14T03:49:47.764Z,97.60
2018-04-14T03:52:15.549Z,97.73
2018-04-14T03:54:43.212Z,98.01
2018-04-14T03:57:10.895Z,98.30
2018-04-14T03:59:38.529Z,98.52
2018-04-14T04:02:06.291Z,98.64
2018-04-14T04:04:34.129Z,98.93
2018-04-14T04:07:01.655Z,98.72
2018-04-14T04:09:29.396Z,98.68
2018-04-14T04:11:57.086Z,99.10
2018-04-14T04:14:24.620Z,99.28
2018-04-14T04:16:52.225Z,99.11
2018-04-14T04:19:31.880Z,99.01
2018-04-14T04:22:11.276Z,99.06
2018-04-14T04:24:50.796Z,98.43
2018-04-14T04:27:18.302Z,98.63
2018-04-14T04:29:45.896Z,99.10
2018-04-14T04:32:13.426Z,99.48
2018-04-14T04:34:41.070Z,99.76
2018-04-14T04:37:08.812Z,99.85
2018-04-14T04:39:36.661Z,99.81
2018-04-14T04:42:04.194Z,99.63
2018-04-14T04:44:31.840Z,99.24
2018-04-14T04:46:59.545Z,98.85
2018-04-14T04:49:27.254Z,98.49
2018-04-14T04:51:54.996Z,97.79
2018-04-14T04:54:22.565Z,98.16
2018-04-14T04:56:50.432Z,98.52
2018-04-14T04:59:18.792Z,98.75
2018-04-14T05:01:46.671Z,98.28
2018-04-14T05:04:14.271Z,98.07
2018-04-14T05:06:41.928Z,98.24
2018-04-14T05:09:09.567Z,98.36
2018-04-14T05:11:37.192Z,98.07
2018-04-14T05:14:04.726Z,96.67
2018-04-14T05:16:32.390Z,95.17
2018-04-14T05:18:59.933Z,94.49
2018-04-14T05:21:27.451Z,92.96
2018-04-14T05:23:55.137Z,92.98
2018-04-14T05:26:22.665Z,93.47
2018-04-14T05:28:50.194Z,94.18
2018-04-14T05:31:17.716Z,93.75
2018-04-14T05:33:46.511Z,93.13
2018-04-14T05:36:14.047Z,92.54
2018-04-14T05:38:41.730Z,91.60
2018-04-14T05:41:09.351Z,92.05
2018-04-14T05:43:36.986Z,92.55
2018-04-14T05:46:04.531Z,92.23
2018-04-14T05:48:32.210Z,89.84
2018-04-14T05:50:59.935Z,89.08
2018-04-14T05:53:27.489Z,89.19
2018-04-14T05:55:55.006Z,90.67
2018-04-14T05:58:22.701Z,91.13
2018-04-14T06:00:50.262Z,90.91
2018-04-14T06:03:17.962Z,88.15
2018-04-14T06:05:45.625Z,87.19
2018-04-14T06:08:13.204Z,85.99
2018-04-14T06:10:40.771Z,85.39
2018-04-14T06:13:08.395Z,84.27
2018-04-14T06:15:35.945Z,83.80
2018-04-14T06:18:03.470Z,83.12
2018-04-14T06:20:31.011Z,81.62
2018-04-14T06:22:58.608Z,82.41
2018-04-14T06:25:26.170Z,84.39
2018-04-14T06:27:53.907Z,82.80
2018-04-14T06:30:21.607Z,81.64
2018-04-14T06:32:49.260Z,82.39
2018-04-14T06:35:16.857Z,82.08
2018-04-14T06:37:44.612Z,82.97
2018-04-14T06:40:12.615Z,80.94
2018-04-14T06:42:40.231Z,81.96
2018-04-14T06:45:07.889Z,81.10
2018-04-14T06:47:35.767Z,80.31
2018-04-14T06:50:03.376Z,80.93
2018-04-14T06:52:31.265Z,76.04
2018-04-14T06:54:59.407Z,74.62
2018-04-14T06:57:27.422Z,73.37
2018-04-14T06:59:54.977Z,73.27
2018-04-14T07:02:22.820Z,70.58
2018-04-14T07:04:50.614Z,70.14
2018-04-14T07:07:18.351Z,68.29
2018-04-14T07:09:45.893Z,64.95
2018-04-14T07:12:13.523Z,68.18
2018-04-14T07:14:41.078Z,69.87
2018-04-14T07:17:08.601Z,69.72
2018-04-14T07:19:37.024Z,69.53
2018-04-14T07:22:04.538Z,68.02
2018-04-14T07:24:32.396Z,67.84
2018-04-14T07:27:00.268Z,63.94
2018-04-14T07:29:28.598Z,62.13
2018-04-14T07:31:56.322Z,63.99
2018-04-14T07:34:24.841Z,62.47
2018-04-14T07:36:52.583Z,60.31
2018-04-14T07:39:20.387Z,61.95
2018-04-14T07:41:47.912Z,60.32
2018-04-14T07:44:15.621Z,62.34
2018-04-14T07:46:43.195Z,61.84
2018-04-14T07:49:10.856Z,60.30
2018-04-14T07:51:38.366Z,59.70
2018-04-14T07:54:06.055Z,58.99
2018-04-14T07:56:33.776Z,55.78
2018-04-14T07:59:01.342Z,54.30
2018-04-14T08:01:28.892Z,52.72
2018-04-14T08:03:56.513Z,54.16
2018-04-14T08:06:24.378Z,52.65
2018-04-14T08:08:51.912Z,51.90
2018-04-14T08:11:19.648Z,53.66
2018-04-14T08:13:47.216Z,52.49
2018-04-14T08:16:14.783Z,53.03
2018-04-14T08:18:42.517Z,51.66
2018-04-14T08:21:10.037Z,49.89
2018-04-14T08:23:37.614Z,48.61
2018-04-14T08:26:05.198Z,47.84
2018-04-14T08:28:32.982Z,47.98
2018-04-14T08:31:00.862Z,47.02
2018-04-14T08:33:28.466Z,45.05
2018-04-14T08:35:56.026Z,46.08
2018-04-14T08:38:23.656Z,45.54
2018-04-14T08:40:51.762Z,42.23
2018-04-14T08:43:19.848Z,44.16
2018-04-14T08:45:47.431Z,41.26
2018-04-14T08:48:15.122Z,41.97
2018-04-14T08:50:42.699Z,40.64
2018-04-14T08:53:10.562Z,38.43
2018-04-14T08:55:38.160Z,36.82
2018-04-14T08:58:06.163Z,38.46
2018-04-14T09:00:33.975Z,35.73
2018-04-14T09:03:01.565Z,34.65
2018-04-14T09:05:29.233Z,34.11
2018-04-14T09:07:56.855Z,36.35
2018-04-14T09:10:24.706Z,35.41
2018-04-14T09:12:52.313Z,31.62
2018-04-14T09:15:19.949Z,30.80
2018-04-14T09:17:47.483Z,33.43
2018-04-14T09:20:15.316Z,30.19
2018-04-14T09:22:42.894Z,29.60
2018-04-14T09:25:10.446Z,28.51
2018-04-14T09:27:38.125Z,29.52
2018-04-14T09:30:06.135Z,26.57
2018-04-14T09:32:33.756Z,26.94
2018-04-14T09:35:01.525Z,27.24
2018-04-14T09:37:29.066Z,25.69
2018-04-14T09:39:57.468Z,25.81
2018-04-14T09:42:25.392Z,25.47
2018-04-14T09:44:53.301Z,25.69
2018-04-14T09:47:25.827Z,28.14
2018-04-14T09:49:53.499Z,29.52
2018-04-14T09:52:21.644Z,26.87
2018-04-14T09:54:49.488Z,25.35
2018-04-14T09:57:18.179Z,26.27
2018-04-14T09:59:46.076Z,29.97
2018-04-14T10:02:13.745Z,28.59
2018-04-14T10:04:41.739Z,29.06
2018-04-14T10:07:09.364Z,27.35
2018-04-14T10:09:37.297Z,27.76
2018-04-14T10:12:05.213Z,28.76
2018-04-14T10:14:33.160Z,24.46
2018-04-14T10:17:00.951Z,21.43
2018-04-14T10:19:32.727Z,20.57
2018-04-14T10:22:01.243Z,23.79
2018-04-14T10:24:29.197Z,23.14
2018-04-14T10:26:57.403Z,24.41
2018-04-14T10:29:25.014Z,21.92
2018-04-14T10:31:54.177Z,22.71
2018-04-14T10:34:22.181Z,24.35
2018-04-14T10:36:49.912Z,22.02
2018-04-14T10:39:17.732Z,23.18
2018-04-14T10:41:45.451Z,24.71
2018-04-14T10:44:13.042Z,26.41
2018-04-14T10:46:40.778Z,25.75
2018-04-14T10:49:09.059Z,26.35
2018-04-14T10:51:36.698Z,25.58
2018-04-14T10:54:04.380Z,27.09
2018-04-14T10:56:31.967Z,27.86
2018-04-14T10:58:59.492Z,27.55
2018-04-14T11:01:27.817Z,27.56
2018-04-14T11:03:55.463Z,25.73
2018-04-14T11:06:22.994Z,23.06
2018-04-14T11:08:50.549Z,22.17
2018-04-14T11:11:18.244Z,19.80
2018-04-14T11:13:45.774Z,20.16
2018-04-14T11:16:13.317Z,17.63
2018-04-14T11:18:40.887Z,20.06
2018-04-14T11:21:08.545Z,21.17
2018-04-14T11:23:36.098Z,18.89
2018-04-14T11:26:03.723Z,17.45
2018-04-14T11:28:33.358Z,18.93
2018-04-14T11:31:00.920Z,20.23
2018-04-14T11:33:28.584Z,19.06
2018-04-14T11:35:56.140Z,19.92
2018-04-14T11:38:23.775Z,19.75
2018-04-14T11:40:51.424Z,21.82
2018-04-14T11:43:19.104Z,21.96
2018-04-14T11:45:46.718Z,22.22
2018-04-14T11:48:14.287Z,19.20
2018-04-14T11:50:42.074Z,18.74
2018-04-14T11:53:09.740Z,18.31
2018-04-14T11:55:37.643Z,19.98
2018-04-14T11:58:05.283Z,20.56
2018-04-14T12:00:33.113Z,19.77
2018-04-14T12:03:00.822Z,21.07
2018-04-14T12:05:28.559Z,19.21
2018-04-14T12:07:56.158Z,19.23
2018-04-14T12:10:23.718Z,19.42
2018-04-14T12:12:51.253Z,17.40
2018-04-14T12:15:18.774Z,16.51
2018-04-14T12:17:46.461Z,18.85
2018-04-14T12:20:15.684Z,17.20
2018-04-14T12:22:43.299Z,15.15
2018-04-14T12:25:10.979Z,18.01
2018-04-14T12:27:38.539Z,17.34
2018-04-14T12:30:06.370Z,20.24
2018-04-14T12:32:33.929Z,18.93
2018-04-14T12:35:01.535Z,21.60
2018-04-14T12:37:29.075Z,23.05
2018-04-14T12:39:57.007Z,22.03
2018-04-14T12:42:24.720Z,20.36
2018-04-14T12:44:52.395Z,17.10
2018-04-14T12:47:20.212Z,17.57
2018-04-14T12:49:47.745Z,17.64
2018-04-14T12:52:15.388Z,17.02
2018-04-14T12:54:42.944Z,16.18
2018-04-14T12:57:10.580Z,16.42
2018-04-14T12:59:38.189Z,15.56
2018-04-14T13:02:05.744Z,15.38
2018-04-14T13:04:33.409Z,17.91
2018-04-14T13:07:00.949Z,18.44
2018-04-14T13:09:28.515Z,19.29
2018-04-14T13:11:56.133Z,16.83
2018-04-14T13:14:23.751Z,16.01
2018-04-14T13:16:51.376Z,16.62
2018-04-14T13:19:18.974Z,17.36
2018-04-14T13:21:46.516Z,17.45
2018-04-14T13:24:14.059Z,18.03
2018-04-14T13:26:41.683Z,17.18
2018-04-14T13:29:09.236Z,18.94
2018-04-14T13:31:36.832Z,20.68
2018-04-14T13:34:04.489Z,20.35
2018-04-14T13:36:32.035Z,19.07
2018-04-14T13:38:59.735Z,17.24
2018-04-14T13:41:27.365Z,17.62
2018-04-14T13:43:55.234Z,16.81
2018-04-14T13:46:22.958Z,16.34
2018-04-14T13:48:50.521Z,16.85
2018-04-14T13:51:18.275Z,17.73
2018-04-14T13:53:46.732Z,18.24
2018-04-14T13:56:14.520Z,17.97
2018-04-14T13:58:42.122Z,19.58
2018-04-14T14:01:09.867Z,19.05
2018-04-14T14:03:37.413Z,19.80
2018-04-14T14:06:04.959Z,21.64
2018-04-14T14:08:33.040Z,24.14
2018-04-14T14:11:00.589Z,24.20
2018-04-14T14:13:28.365Z,23.42
2018-04-14T14:15:56.063Z,22.68
2018-04-14T14:18:23.965Z,23.46
2018-04-14T14:20:51.555Z,24.19
2018-04-14T14:23:19.238Z,24.53
2018-04-14T14:25:47.174Z,24.60
2018-04-14T14:28:14.780Z,25.35
2018-04-14T14:30:42.496Z,24.87
2018-04-14T14:33:10.124Z,26.24
2018-04-14T14:35:38.006Z,28.30
2018-04-14T14:38:05.744Z,30.75
2018-04-14T14:40:33.438Z,30.21
2018-04-14T14:43:01.018Z,28.69
2018-04-14T14:45:29.419Z,28.61
2018-04-14T14:47:57.083Z,28.74
2018-04-14T14:50:28.921Z,28.46
2018-04-14T14:52:56.651Z,29.09
2018-04-14T14:55:24.209Z,30.42
2018-04-14T14:57:51.740Z,31.97
2018-04-14T15:00:19.296Z,31.08
2018-04-14T15:02:46.969Z,33.95
2018-04-14T15:05:14.519Z,33.44
2018-04-14T15:07:42.193Z,31.25
2018-04-14T15:10:10.012Z,31.91
2018-04-14T15:12:37.593Z,32.22
2018-04-14T15:15:05.174Z,34.12
2018-04-14T15:17:33.132Z,31.65
2018-04-14T15:20:00.691Z,32.69
2018-04-14T15:22:28.319Z,31.48
2018-04-14T15:24:55.954Z,30.88
2018-04-14T15:27:23.580Z,33.01
2018-04-14T15:29:51.337Z,34.75
2018-04-14T15:32:19.065Z,35.17
2018-04-14T15:34:46.863Z,36.42
2018-04-14T15:37:14.437Z,35.99
2018-04-14T15:39:42.087Z,35.63
2018-04-14T15:42:09.664Z,34.29
2018-04-14T15:44:37.188Z,35.86
2018-04-14T15:47:04.967Z,36.28
2018-04-14T15:49:32.689Z,34.64
2018-04-14T15:52:00.467Z,35.09
2018-04-14T15:54:28.383Z,34.83
2018-04-14T15:56:56.182Z,35.52
2018-04-14T15:59:23.748Z,35.98
2018-04-14T16:01:51.766Z,36.64
2018-04-14T16:04:19.355Z,36.74
2018-04-14T16:06:47.009Z,36.57
2018-04-14T16:09:14.666Z,36.27
2018-04-14T16:11:42.212Z,36.75
2018-04-14T16:14:09.873Z,38.60
2018-04-14T16:16:37.526Z,36.72
2018-04-14T16:19:05.134Z,38.83
2018-04-14T16:21:32.855Z,37.64
2018-04-14T16:24:00.757Z,36.04
2018-04-14T16:26:28.455Z,36.18
2018-04-14T16:28:56.114Z,35.08
2018-04-14T16:31:23.699Z,36.21
2018-04-14T16:33:51.234Z,36.08
2018-04-14T16:36:18.825Z,36.59
2018-04-14T16:38:47.341Z,38.20
2018-04-14T16:41:15.041Z,36.46
2018-04-14T16:43:42.596Z,37.74
2018-04-14T16:46:10.400Z,38.48
2018-04-14T16:48:38.069Z,40.40
2018-04-14T16:51:05.720Z,41.79
2018-04-14T16:53:33.333Z,43.26
2018-04-14T16:56:00.891Z,42.37
2018-04-14T16:58:28.511Z,43.00
2018-04-14T17:00:56.109Z,41.66
2018-04-14T17:03:23.825Z,42.12
2018-04-14T17:05:51.459Z,42.37
2018-04-14T17:08:19.035Z,42.12
2018-04-14T17:10:46.905Z,43.86
2018-04-14T17:13:14.561Z,45.52
2018-04-14T17:15:42.206Z,46.81
2018-04-14T17:18:09.799Z,48.39
2018-04-14T17:20:37.499Z,48.39
2018-04-14T17:23:05.053Z,49.17
2018-04-14T17:25:32.613Z,48.17
2018-04-14T17:28:00.269Z,48.39
2018-04-14T17:30:27.878Z,51.13
2018-04-14T17:32:55.696Z,51.90
2018-04-14T17:35:23.400Z,51.03
2018-04-14T17:37:50.937Z,53.41
2018-04-14T17:40:18.581Z,53.67
2018-04-14T17:42:46.315Z,53.72
2018-04-14T17:45:14.020Z,53.82
2018-04-14T17:47:41.738Z,54.51
2018-04-14T17:50:09.516Z,55.71
2018-04-14T17:52:37.036Z,57.93
2018-04-14T17:55:04.707Z,56.86
2018-04-14T17:57:32.425Z,58.18
2018-04-14T18:00:00.122Z,55.64
2018-04-14T18:02:27.763Z,57.91
2018-04-14T18:04:55.510Z,60.31
2018-04-14T18:07:23.180Z,60.33
2018-04-14T18:09:50.747Z,59.38
2018-04-14T18:12:18.303Z,59.03
2018-04-14T18:14:49.306Z,57.27
2018-04-14T18:17:16.950Z,61.78
2018-04-14T18:19:44.685Z,63.53
2018-04-14T18:22:12.510Z,62.70
2018-04-14T18:24:40.198Z,60.64
2018-04-14T18:27:07.752Z,60.90
2018-04-14T18:29:35.632Z,57.43
2018-04-14T18:32:03.274Z,60.68
2018-04-14T18:34:30.936Z,65.13
2018-04-14T18:36:58.580Z,65.92
2018-04-14T18:39:26.638Z,66.40
2018-04-14T18:41:54.341Z,66.89
2018-04-14T18:44:22.175Z,68.13
2018-04-14T18:46:49.760Z,67.44
2018-04-14T18:49:17.449Z,66.22
2018-04-14T18:51:45.065Z,67.60
2018-04-14T18:54:12.755Z,69.58
2018-04-14T18:56:40.439Z,70.09
2018-04-14T18:59:08.179Z,69.36
2018-04-14T19:01:35.746Z,69.07
2018-04-14T19:04:03.301Z,69.32
2018-04-14T19:06:30.925Z,71.42
2018-04-14T19:08:58.747Z,70.51
2018-04-14T19:11:26.424Z,70.08
2018-04-14T19:13:53.983Z,71.56
2018-04-14T19:16:21.904Z,73.11
2018-04-14T19:18:49.605Z,72.49
2018-04-14T19:21:17.235Z,72.51
2018-04-14T19:23:44.876Z,70.97
2018-04-14T19:26:12.476Z,74.31
2018-04-14T19:28:40.043Z,77.05
2018-04-14T19:31:07.615Z,74.28
2018-04-14T19:33:35.591Z,74.88
2018-04-14T19:36:03.293Z,74.37
2018-04-14T19:38:31.060Z,74.11
2018-04-14T19:40:58.756Z,76.50
2018-04-14T19:43:26.505Z,77.25
2018-04-14T19:45:54.235Z,75.40
2018-04-14T19:48:21.781Z,74.64
2018-04-14T19:50:49.684Z,73.96
2018-04-14T19:53:17.337Z,75.56
2018-04-14T19:55:45.006Z,75.38
2018-04-14T19:58:12.811Z,74.82
2018-04-14T20:00:41.411Z,75.55
2018-04-14T20:03:09.311Z,76.91
2018-04-14T20:05:37.097Z,76.97
2018-04-14T20:08:04.927Z,76.63
2018-04-14T20:10:32.728Z,78.92
2018-04-14T20:13:00.897Z,80.39
2018-04-14T20:15:28.724Z,81.02
2018-04-14T20:17:56.623Z,79.51
2018-04-14T20:20:24.458Z,77.77
2018-04-14T20:22:52.237Z,78.58
2018-04-14T20:25:20.193Z,79.81
2018-04-14T20:27:47.913Z,81.01
2018-04-14T20:30:15.671Z,80.35
2018-04-14T20:32:43.758Z,79.59
2018-04-14T20:35:11.519Z,79.69
2018-04-14T20:37:39.543Z,80.50
2018-04-14T20:40:07.173Z,81.54
2018-04-14T20:42:34.822Z,81.06
2018-04-14T20:45:02.678Z,80.83
2018-04-14T20:47:30.366Z,81.04
2018-04-14T20:49:58.141Z,82.73
2018-04-14T20:52:26.668Z,80.69
2018-04-14T20:54:54.867Z,81.09
2018-04-14T20:57:22.938Z,81.44
2018-04-14T20:59:50.579Z,80.12
2018-04-14T21:02:18.732Z,80.53
2018-04-14T21:04:46.368Z,82.01
2018-04-14T21:07:14.002Z,81.85
2018-04-14T21:09:42.168Z,83.01
2018-04-14T21:12:09.973Z,82.69
2018-04-14T21:14:37.576Z,83.24
2018-04-14T21:17:05.451Z,83.01
2018-04-14T21:19:33.101Z,80.59
2018-04-14T21:22:00.751Z,82.15
2018-04-14T21:24:28.282Z,82.34
2018-04-14T21:26:56.025Z,80.37
2018-04-14T21:29:23.591Z,80.61
2018-04-14T21:31:51.333Z,84.30
2018-04-14T21:34:18.931Z,83.47
2018-04-14T21:36:46.791Z,85.23
2018-04-14T21:39:14.534Z,84.17
2018-04-14T21:41:42.211Z,83.43
2018-04-14T21:44:09.986Z,84.31
2018-04-14T21:46:37.867Z,84.62
2018-04-14T21:49:05.508Z,84.67
2018-04-14T21:51:33.351Z,85.40
2018-04-14T21:54:01.311Z,85.13
2018-04-14T21:56:29.008Z,85.20
2018-04-14T21:58:56.605Z,84.49
2018-04-14T22:01:24.411Z,83.45
2018-04-14T22:03:52.068Z,84.47
2018-04-14T22:06:19.622Z,85.28
2018-04-14T22:08:48.078Z,86.07
2018-04-14T22:11:16.387Z,85.67
2018-04-14T22:13:44.180Z,86.19
2018-04-14T22:16:11.840Z,85.43
2018-04-14T22:18:39.468Z,86.18
2018-04-14T22:21:07.304Z,84.53
2018-04-14T22:23:35.019Z,86.11
2018-04-14T22:26:02.877Z,86.14
2018-04-14T22:28:30.562Z,86.54
2018-04-14T22:30:58.194Z,86.01
2018-04-14T22:33:25.871Z,87.15
2018-04-14T22:35:53.456Z,87.67
2018-04-14T22:38:21.065Z,86.34
2018-04-14T22:40:48.819Z,86.34
2018-04-14T22:43:16.467Z,86.98
2018-04-14T22:45:44.206Z,88.13
2018-04-14T22:48:11.852Z,88.71
2018-04-14T22:50:39.388Z,88.25
2018-04-14T22:53:07.093Z,87.77
2018-04-14T22:55:34.918Z,87.64
2018-04-14T22:58:02.638Z,87.62
2018-04-14T23:00:30.194Z,87.97
2018-04-14T23:02:58.172Z,88.50
2018-04-14T23:05:26.506Z,88.70
2018-04-14T23:07:54.344Z,88.81
2018-04-14T23:10:22.092Z,86.89
2018-04-14T23:12:50.508Z,86.02
2018-04-14T23:15:18.303Z,87.37
2018-04-14T23:17:46.152Z,88.29
2018-04-14T23:20:13.862Z,87.27
2018-04-14T23:22:41.712Z,86.19
2018-04-14T23:25:09.331Z,87.09
2018-04-14T23:27:36.882Z,86.22
2018-04-14T23:30:04.786Z,88.08
2018-04-14T23:32:32.657Z,87.66
2018-04-14T23:35:00.644Z,88.03
2018-04-14T23:37:28.305Z,88.66
2018-04-14T23:39:56.016Z,88.08
2018-04-14T23:42:23.761Z,88.84
2018-04-14T23:44:51.415Z,89.55
2018-04-14T23:47:19.048Z,88.89
2018-04-14T23:49:46.714Z,88.67
2018-04-14T23:52:14.306Z,87.08
2018-04-14T23:54:41.869Z,87.30
2018-04-14T23:57:09.856Z,86.79
2018-04-14T23:59:37.527Z,86.64
